createdAt,value
2023-07-10T00:00:47.974Z,17.40
2023-07-10T00:04:51.415Z,15.90
2023-07-10T00:08:54.229Z,17.40
2023-07-10T00:12:57.083Z,17.70
2023-07-10T00:17:01.431Z,16.67
2023-07-10T00:21:04.606Z,16.67
2023-07-10T00:25:08.433Z,19.07
2023-07-10T00:29:17.415Z,17.90
2023-07-10T00:33:22.394Z,18.80
2023-07-10T00:37:25.307Z,18.67
2023-07-10T00:41:33.521Z,17.00
2023-07-10T00:45:36.431Z,15.33
2023-07-10T00:49:48.622Z,16.13
2023-07-10T00:53:54.523Z,17.03
2023-07-10T00:58:20.093Z,15.13
2023-07-10T01:02:33.964Z,17.03
2023-07-10T01:06:39.319Z,16.53
2023-07-10T01:10:42.493Z,15.00
2023-07-10T01:14:46.714Z,17.33
2023-07-10T01:18:50.739Z,15.57
2023-07-10T01:22:55.040Z,16.00
2023-07-10T01:26:58.956Z,13.87
2023-07-10T01:31:05.246Z,13.17
2023-07-10T01:35:10.931Z,16.20
2023-07-10T01:39:37.865Z,15.23
2023-07-10T01:43:44.773Z,17.27
2023-07-10T01:47:48.715Z,16.23
2023-07-10T01:51:52.460Z,14.83
2023-07-10T01:55:56.615Z,14.77
2023-07-10T02:00:00.836Z,13.87
2023-07-10T02:04:06.514Z,16.33
2023-07-10T02:08:09.889Z,14.93
2023-07-10T02:12:14.206Z,15.60
2023-07-10T02:16:17.453Z,16.07
2023-07-10T02:20:20.340Z,14.97
2023-07-10T02:24:23.125Z,17.13
2023-07-10T02:28:27.332Z,15.97
2023-07-10T02:32:30.444Z,17.13
2023-07-10T02:36:33.329Z,19.10
2023-07-10T02:40:36.189Z,18.07
2023-07-10T02:44:41.542Z,18.27
2023-07-10T02:48:44.397Z,19.30
2023-07-10T02:52:47.233Z,18.73
2023-07-10T02:56:50.241Z,17.93
2023-07-10T03:00:59.196Z,19.03
2023-07-10T03:05:02.195Z,20.77
2023-07-10T03:09:05.433Z,22.10
2023-07-10T03:13:08.308Z,20.27
2023-07-10T03:17:12.508Z,19.83
2023-07-10T03:21:15.363Z,21.33
2023-07-10T03:25:18.292Z,21.83
2023-07-10T03:29:21.129Z,19.50
2023-07-10T03:33:25.396Z,19.00
2023-07-10T03:37:28.234Z,18.33
2023-07-10T03:41:31.171Z,20.47
2023-07-10T03:45:34.052Z,22.23
2023-07-10T03:49:38.250Z,19.53
2023-07-10T03:53:41.206Z,20.27
2023-07-10T03:57:44.052Z,19.90
2023-07-10T04:01:46.901Z,18.77
2023-07-10T04:05:53.784Z,18.47
2023-07-10T04:09:57.290Z,17.77
2023-07-10T04:14:00.141Z,17.27
2023-07-10T04:18:03.021Z,17.63
2023-07-10T04:22:07.577Z,15.43
2023-07-10T04:26:16.718Z,16.07
2023-07-10T04:30:19.584Z,16.20
2023-07-10T04:34:24.348Z,14.03
2023-07-10T04:38:30.348Z,13.00
2023-07-10T04:42:33.359Z,14.13
2023-07-10T04:46:36.833Z,14.77
2023-07-10T04:50:39.689Z,13.40
2023-07-10T04:54:43.888Z,12.93
2023-07-10T04:58:50.870Z,12.50
2023-07-10T05:02:55.059Z,9.87
2023-07-10T05:06:59.311Z,9.23
2023-07-10T05:11:03.877Z,8.37
2023-07-10T05:15:07.942Z,9.20
2023-07-10T05:19:10.885Z,7.37
2023-07-10T05:23:14.286Z,7.17
2023-07-10T05:27:18.421Z,8.40
2023-07-10T05:31:21.499Z,8.60
2023-07-10T05:35:25.429Z,9.47
2023-07-10T05:39:32.134Z,9.73
2023-07-10T05:43:38.382Z,9.70
2023-07-10T05:47:41.449Z,8.77
2023-07-10T05:51:44.346Z,9.07
2023-07-10T05:55:48.275Z,7.53
2023-07-10T05:59:54.284Z,7.90
2023-07-10T06:03:57.427Z,7.20
2023-07-10T06:08:00.397Z,7.30
2023-07-10T06:12:04.351Z,6.60
2023-07-10T06:16:12.127Z,6.07
2023-07-10T06:20:16.589Z,6.30
2023-07-10T06:24:19.952Z,5.90
2023-07-10T06:28:23.317Z,5.90
2023-07-10T06:32:28.353Z,5.40
2023-07-10T06:36:31.504Z,5.27
2023-07-10T06:40:34.569Z,5.67
2023-07-10T06:44:37.650Z,5.50
2023-07-10T06:48:43.966Z,5.97
2023-07-10T06:52:48.019Z,5.07
2023-07-10T06:56:52.210Z,5.73
2023-07-10T07:00:56.068Z,5.30
2023-07-10T07:05:00.640Z,4.83
2023-07-10T07:09:04.124Z,4.87
2023-07-10T07:13:06.962Z,5.80
2023-07-10T07:17:10.244Z,5.10
2023-07-10T07:21:15.902Z,4.63
2023-07-10T07:25:19.433Z,4.83
2023-07-10T07:29:22.352Z,5.33
2023-07-10T07:33:25.480Z,5.00
2023-07-10T07:37:29.845Z,4.27
2023-07-10T07:41:33.160Z,4.90
2023-07-10T07:45:36.331Z,4.70
2023-07-10T07:49:39.272Z,4.33
2023-07-10T07:53:43.423Z,3.90
2023-07-10T07:57:46.681Z,3.63
2023-07-10T08:01:49.938Z,3.23
2023-07-10T08:05:53.588Z,3.53
2023-07-10T08:10:00.035Z,2.97
2023-07-10T08:14:03.357Z,3.47
2023-07-10T08:18:06.746Z,3.30
2023-07-10T08:22:09.626Z,3.30
2023-07-10T08:26:14.199Z,3.37
2023-07-10T08:30:17.531Z,2.70
2023-07-10T08:34:21.190Z,3.10
2023-07-10T08:38:24.222Z,2.97
2023-07-10T08:42:32.514Z,2.30
2023-07-10T08:46:35.771Z,2.63
2023-07-10T08:50:40.743Z,2.73
2023-07-10T08:54:47.383Z,2.73
2023-07-10T08:58:52.736Z,2.53
2023-07-10T09:03:07.318Z,2.10
2023-07-10T09:07:11.972Z,2.25
2023-07-10T09:11:15.441Z,2.10
2023-07-10T09:15:26.576Z,1.67
2023-07-10T09:19:32.439Z,2.22
2023-07-10T09:23:36.376Z,2.50
2023-07-10T09:27:39.250Z,1.98
2023-07-10T09:31:50.481Z,1.98
2023-07-10T09:35:54.106Z,1.77
2023-07-10T09:39:57.036Z,1.80
2023-07-10T09:44:02.350Z,1.90
2023-07-10T09:48:15.079Z,2.08
2023-07-10T09:52:24.143Z,2.10
2023-07-10T09:56:29.186Z,2.65
2023-07-10T10:00:35.661Z,2.38
2023-07-10T10:04:43.962Z,2.67
2023-07-10T10:08:48.472Z,2.17
2023-07-10T10:13:05.486Z,2.33
2023-07-10T10:17:14.064Z,2.83
2023-07-10T10:21:21.295Z,2.10
2023-07-10T10:25:34.625Z,2.15
2023-07-10T10:29:57.336Z,2.20
2023-07-10T10:34:06.840Z,2.08
2023-07-10T10:38:31.534Z,2.50
2023-07-10T10:42:43.663Z,2.53
2023-07-10T10:47:03.335Z,2.17
2023-07-10T10:51:18.447Z,2.22
2023-07-10T10:55:34.433Z,2.50
2023-07-10T10:59:48.179Z,2.22
2023-07-10T11:03:56.531Z,2.25
2023-07-10T11:08:05.583Z,1.98
2023-07-10T11:12:18.139Z,2.38
2023-07-10T11:16:22.266Z,2.05
2023-07-10T11:20:27.687Z,2.30
2023-07-10T11:24:35.346Z,2.67
2023-07-10T11:29:05.655Z,2.40
2023-07-10T11:33:18.818Z,2.85
2023-07-10T11:38:06.758Z,2.22
2023-07-10T11:42:18.540Z,2.72
2023-07-10T11:50:57.180Z,2.50
2023-07-10T11:55:10.266Z,2.15
2023-07-10T11:59:21.697Z,2.05
2023-07-10T12:03:24.846Z,2.17
2023-07-10T12:07:29.902Z,1.98
2023-07-10T12:11:34.921Z,2.00
2023-07-10T12:15:39.104Z,2.10
2023-07-10T12:19:44.045Z,2.33
2023-07-10T12:24:01.897Z,2.10
2023-07-10T12:32:17.996Z,2.00
2023-07-10T12:36:26.291Z,2.28
2023-07-10T12:40:33.325Z,2.53
2023-07-10T12:44:46.156Z,2.10
2023-07-10T12:48:54.390Z,2.10
2023-07-10T12:52:57.255Z,2.60
2023-07-10T12:57:02.207Z,2.55
2023-07-10T13:01:19.890Z,1.80
2023-07-10T13:05:25.514Z,2.17
2023-07-10T13:09:31.909Z,2.17
2023-07-10T13:13:40.466Z,2.58
2023-07-10T13:17:48.354Z,2.78
2023-07-10T13:21:51.561Z,2.92
2023-07-10T13:25:56.732Z,2.20
2023-07-10T13:30:01.607Z,2.03
2023-07-10T13:34:05.949Z,2.10
2023-07-10T13:38:13.077Z,2.20
2023-07-10T13:42:16.733Z,2.08
2023-07-10T13:46:26.700Z,2.10
2023-07-10T13:50:29.537Z,2.38
2023-07-10T13:54:33.320Z,2.22
2023-07-10T13:58:36.353Z,1.95
2023-07-10T14:02:44.417Z,2.38
2023-07-10T14:06:48.496Z,2.13
2023-07-10T14:10:52.603Z,1.85
2023-07-10T14:14:55.889Z,2.50
2023-07-10T14:19:00.575Z,2.28
2023-07-10T14:23:03.522Z,2.10
2023-07-10T14:27:17.663Z,2.28
2023-07-10T14:31:22.111Z,1.90
2023-07-10T14:35:31.513Z,2.42
2023-07-10T14:39:37.055Z,2.33
2023-07-10T14:43:40.493Z,2.33
2023-07-10T14:47:45.393Z,2.20
2023-07-10T14:51:49.762Z,2.22
2023-07-10T14:55:54.833Z,2.50
2023-07-10T14:59:58.433Z,2.00
2023-07-10T15:04:01.449Z,2.08
2023-07-10T15:08:07.345Z,1.88
2023-07-10T15:12:13.175Z,1.83
2023-07-10T15:16:18.899Z,1.95
2023-07-10T15:20:28.251Z,2.15
2023-07-10T15:24:51.552Z,1.70
2023-07-10T15:28:57.301Z,2.15
2023-07-10T15:33:07.371Z,2.50
2023-07-10T15:37:21.763Z,1.90
2023-07-10T15:41:33.685Z,1.98
2023-07-10T15:45:43.935Z,1.77
2023-07-10T15:49:48.407Z,2.13
2023-07-10T15:53:51.456Z,2.28
2023-07-10T15:58:02.071Z,1.98
2023-07-10T16:02:12.904Z,2.13
2023-07-10T16:06:16.138Z,2.92
2023-07-10T16:10:21.634Z,2.03
2023-07-10T16:14:29.649Z,1.88
2023-07-10T16:18:34.638Z,2.30
2023-07-10T16:22:40.545Z,2.10
2023-07-10T16:26:46.822Z,2.08
2023-07-10T16:30:52.631Z,2.10
2023-07-10T16:34:56.761Z,1.98
2023-07-10T16:39:00.961Z,1.98
2023-07-10T16:43:13.032Z,2.50
2023-07-10T16:47:19.793Z,2.55
2023-07-10T16:51:26.016Z,2.17
2023-07-10T16:55:30.842Z,2.05
2023-07-10T16:59:33.764Z,2.13
2023-07-10T17:03:38.246Z,2.42
2023-07-10T17:07:44.707Z,2.53
2023-07-10T17:12:01.968Z,1.88
2023-07-10T17:16:25.950Z,2.22
2023-07-10T17:20:50.336Z,2.70
2023-07-10T17:25:14.403Z,2.20
2023-07-10T17:29:35.434Z,2.33
2023-07-10T17:33:50.683Z,2.80
2023-07-10T17:38:14.937Z,1.85
2023-07-10T17:42:37.407Z,2.50
2023-07-10T17:46:53.224Z,2.15
2023-07-10T17:51:07.664Z,2.47
2023-07-10T17:55:20.253Z,2.17
2023-07-10T17:59:23.518Z,2.30
2023-07-10T18:03:34.848Z,2.47
2023-07-10T18:07:39.534Z,1.90
2023-07-10T18:11:44.315Z,2.03
2023-07-10T18:16:07.977Z,1.87
2023-07-10T18:20:13.571Z,2.37
2023-07-10T18:24:20.177Z,1.97
2023-07-10T18:28:27.274Z,2.00
2023-07-10T18:32:30.477Z,2.22
2023-07-10T18:36:34.060Z,2.37
2023-07-10T18:40:39.023Z,2.00
2023-07-10T18:44:44.450Z,1.70
2023-07-10T18:48:48.403Z,2.00
2023-07-10T18:52:51.519Z,2.17
2023-07-10T18:56:54.565Z,2.33
2023-07-10T19:01:04.224Z,2.27
2023-07-10T19:05:09.242Z,2.07
2023-07-10T19:09:18.546Z,3.00
2023-07-10T19:13:23.708Z,2.30
2023-07-10T19:17:34.052Z,2.10
2023-07-10T19:21:37.416Z,2.30
2023-07-10T19:25:41.937Z,2.27
2023-07-10T19:29:45.920Z,2.33
2023-07-10T19:33:51.599Z,2.30
2023-07-10T19:38:03.909Z,2.60
2023-07-10T19:42:21.900Z,2.40
2023-07-10T19:46:39.160Z,2.47
2023-07-10T19:50:58.092Z,2.47
2023-07-10T19:55:04.797Z,2.23
2023-07-10T19:59:12.128Z,2.90
2023-07-10T20:03:18.573Z,2.50
2023-07-10T20:07:23.358Z,2.80
2023-07-10T20:11:27.664Z,2.50
2023-07-10T20:15:42.795Z,2.83
2023-07-10T20:20:05.632Z,3.00
2023-07-10T20:24:30.477Z,2.33
2023-07-10T20:28:52.876Z,3.07
2023-07-10T20:33:14.474Z,3.00
2023-07-10T20:37:34.658Z,2.50
2023-07-10T20:41:58.722Z,2.60
2023-07-10T20:46:07.393Z,2.53
2023-07-10T20:50:15.335Z,2.97
2023-07-10T20:54:20.557Z,2.30
2023-07-10T20:58:28.782Z,2.20
2023-07-10T21:02:34.533Z,2.60
2023-07-10T21:06:38.687Z,2.23
2023-07-10T21:10:43.577Z,2.33
2023-07-10T21:14:50.350Z,2.50
2023-07-10T21:18:55.793Z,2.20
2023-07-10T21:22:59.604Z,2.47
2023-07-10T21:27:23.232Z,2.40
2023-07-10T21:31:29.851Z,2.60
2023-07-10T21:35:36.514Z,2.40
2023-07-10T21:39:39.599Z,2.90
2023-07-10T21:43:42.638Z,2.60
2023-07-10T21:47:46.906Z,2.70
2023-07-10T21:51:51.314Z,2.80
2023-07-10T21:55:58.325Z,2.83
2023-07-10T22:00:01.324Z,3.10
2023-07-10T22:04:11.626Z,2.90
2023-07-10T22:08:15.578Z,3.07
2023-07-10T22:12:18.633Z,2.90
2023-07-10T22:16:26.025Z,3.10
2023-07-10T22:20:41.984Z,3.33
2023-07-10T22:24:45.114Z,3.60
2023-07-10T22:28:48.505Z,3.53
2023-07-10T22:32:51.796Z,3.40
2023-07-10T22:36:56.118Z,3.03
2023-07-10T22:41:02.269Z,3.00
2023-07-10T22:45:06.107Z,2.97
2023-07-10T22:49:13.396Z,3.23
2023-07-10T22:53:18.765Z,3.20
2023-07-10T22:57:21.672Z,2.80
2023-07-10T23:01:26.401Z,3.33
2023-07-10T23:05:32.650Z,3.20
2023-07-10T23:09:37.030Z,3.57
2023-07-10T23:13:40.196Z,3.33
2023-07-10T23:17:44.093Z,3.90
2023-07-10T23:21:46.912Z,3.50
2023-07-10T23:25:51.393Z,3.50
2023-07-10T23:29:54.582Z,3.63
2023-07-10T23:33:57.491Z,3.97
2023-07-10T23:38:00.569Z,3.50
2023-07-10T23:42:05.456Z,3.50
2023-07-10T23:46:08.684Z,3.50
2023-07-10T23:50:13.257Z,3.77
2023-07-10T23:54:16.229Z,3.93
2023-07-10T23:58:20.927Z,3.13
